Time;durP1;ratioP1;P1;durP2;ratioP2;P2;SDS_P1;SDS_P2;PMS_P1;PMS_P2;Temp;Humidity;BMP_temperature;BMP_pressure;BME280_temperature;BME280_humidity;BME280_pressure;Samples;Min_cycle;Max_cycle;Signal;HPM_P1;HPM_P2
2023/12/28 00:02:07;;;;;;;;;5.00;5.00;;;;;11.73;100.00;101391.56;5044265;28;45571;-79
2023/12/28 00:04:34;;;;;;;;;6.00;4.00;;;;;11.64;100.00;101382.19;5040983;28;45277;-79
2023/12/28 00:07:00;;;;;;;;;4.00;4.00;;;;;11.70;100.00;101389.91;5020639;28;45437;-78
2023/12/28 00:09:25;;;;;;;;;5.00;4.33;;;;;11.56;100.00;101364.88;5021318;28;45548;-78
2023/12/28 00:11:50;;;;;;;;;3.67;2.67;;;;;11.64;100.00;101383.97;5022854;28;45295;-78
2023/12/28 00:14:16;;;;;;;;;4.33;4.33;;;;;11.44;100.00;101355.69;5040631;28;45366;-78
2023/12/28 00:16:41;;;;;;;;;6.00;5.00;;;;;11.54;100.00;101367.59;5040237;28;45604;-79
2023/12/28 00:19:06;;;;;;;;;4.67;4.00;;;;;11.69;100.00;101393.44;5022653;28;45425;-78
2023/12/28 00:21:32;;;;;;;;;5.00;5.00;;;;;11.67;100.00;101397.97;5027747;28;45690;-79
2023/12/28 00:23:57;;;;;;;;;4.00;4.00;;;;;11.63;100.00;101396.34;5023220;28;45635;-78
2023/12/28 00:26:23;;;;;;;;;4.00;4.00;;;;;11.61;100.00;101384.09;5047024;28;45456;-78
2023/12/28 00:28:48;;;;;;;;;5.67;5.00;;;;;11.61;100.00;101389.41;5040074;28;45296;-78
2023/12/28 00:31:14;;;;;;;;;4.33;4.33;;;;;11.57;100.00;101379.84;5040607;28;45337;-78
2023/12/28 00:33:39;;;;;;;;;4.00;4.00;;;;;11.50;100.00;101382.75;5039876;28;45345;-78
2023/12/28 00:36:04;;;;;;;;;5.33;4.00;;;;;11.44;100.00;101363.63;5039944;28;45597;-78
2023/12/28 00:38:30;;;;;;;;;5.33;4.33;;;;;11.59;100.00;101392.09;5021803;28;45471;-78
2023/12/28 00:40:55;;;;;;;;;3.67;3.67;;;;;11.63;100.00;101388.41;5022419;28;45415;-78
2023/12/28 00:43:20;;;;;;;;;4.00;4.00;;;;;11.64;100.00;101384.84;5021596;28;56314;-78
2023/12/28 00:45:46;;;;;;;;;3.00;3.00;;;;;11.57;100.00;101383.38;5021950;28;45476;-79
2023/12/28 00:48:11;;;;;;;;;4.00;4.00;;;;;11.47;100.00;101367.00;5021650;28;45423;-78
2023/12/28 00:50:36;;;;;;;;;5.33;4.33;;;;;11.52;100.00;101388.84;5021723;28;46036;-79
2023/12/28 00:53:02;;;;;;;;;5.67;3.00;;;;;11.67;100.00;101399.75;5031907;28;48990;-78
2023/12/28 00:55:27;;;;;;;;;2.67;2.67;;;;;11.52;100.00;101380.03;5023643;28;45381;-79
2023/12/28 00:57:53;;;;;;;;;2.33;2.33;;;;;11.64;100.00;101386.63;5039770;28;45296;-78
2023/12/28 01:00:18;;;;;;;;;9.00;5.00;;;;;11.60;100.00;101385.88;5039210;28;45580;-78
2023/12/28 01:02:46;;;;;;;;;4.33;4.33;;;;;11.62;100.00;101391.97;5021932;28;45319;-79
2023/12/28 01:05:12;;;;;;;;;5.00;3.67;;;;;11.68;100.00;101399.66;5039989;28;45404;-78
2023/12/28 01:07:37;;;;;;;;;4.33;3.33;;;;;11.58;100.00;101376.28;5021860;28;45307;-78
2023/12/28 01:10:03;;;;;;;;;3.67;3.67;;;;;11.24;100.00;101326.50;5038231;28;50119;-78
2023/12/28 01:12:28;;;;;;;;;5.33;4.00;;;;;11.62;100.00;101383.16;5018579;28;45512;-78
2023/12/28 01:14:53;;;;;;;;;3.67;3.00;;;;;11.69;100.00;101395.22;5037420;28;45388;-78
2023/12/28 01:17:19;;;;;;;;;5.00;5.00;;;;;11.54;100.00;101362.31;5039295;28;45524;-78
2023/12/28 01:19:45;;;;;;;;;5.33;3.67;;;;;11.53;100.00;101371.19;5021417;28;45404;-78
2023/12/28 01:22:10;;;;;;;;;3.33;3.33;;;;;11.61;100.00;101390.28;5039620;28;45389;-78
2023/12/28 01:24:35;;;;;;;;;5.00;2.67;;;;;11.55;100.00;101379.06;5032820;28;45824;-78
2023/12/28 01:27:01;;;;;;;;;5.00;5.00;;;;;11.64;100.00;101408.69;5041356;28;45339;-79
2023/12/28 01:29:26;;;;;;;;;5.33;5.00;;;;;11.47;100.00;101382.91;5039398;28;45550;-78
2023/12/28 01:31:51;;;;;;;;;4.33;4.00;;;;;11.55;100.00;101392.31;5021088;28;45488;-78
2023/12/28 01:34:16;;;;;;;;;4.33;4.00;;;;;11.65;100.00;101393.66;5021132;28;48109;-78
2023/12/28 01:36:44;;;;;;;;;3.67;3.00;;;;;11.60;100.00;101395.63;5039036;28;57075;-79
2023/12/28 01:39:10;;;;;;;;;4.00;2.33;;;;;11.62;100.00;101396.41;5037886;28;45422;-78
2023/12/28 01:41:36;;;;;;;;;4.33;4.00;;;;;11.64;100.00;101406.03;5021254;28;45596;-79
2023/12/28 01:44:01;;;;;;;;;4.00;4.00;;;;;11.65;100.00;101412.19;5038931;28;45453;-79
2023/12/28 01:46:27;;;;;;;;;4.00;4.00;;;;;11.52;100.00;101411.00;5020961;28;45362;-78
2023/12/28 01:48:53;;;;;;;;;3.33;3.33;;;;;11.48;100.00;101389.06;5037286;28;45484;-79
2023/12/28 01:51:20;;;;;;;;;3.67;3.67;;;;;11.46;100.00;101396.19;5037601;28;45527;-78
2023/12/28 01:53:48;;;;;;;;;6.00;4.00;;;;;11.42;100.00;101395.44;5039005;28;45563;-78
2023/12/28 01:56:15;;;;;;;;;4.00;4.00;;;;;11.48;100.00;101410.25;5038918;28;45394;-78
2023/12/28 01:58:44;;;;;;;;;4.00;4.00;;;;;11.55;100.00;101429.41;5038510;28;45257;-79
2023/12/28 02:01:10;;;;;;;;;3.33;3.00;;;;;11.58;100.00;101435.44;5039084;28;45285;-79
2023/12/28 02:03:35;;;;;;;;;5.00;4.33;;;;;11.43;100.00;101413.06;5020837;28;46243;-78
2023/12/28 02:06:02;;;;;;;;;6.00;3.00;;;;;11.58;100.00;101439.88;5001314;28;45341;-79
2023/12/28 02:08:27;;;;;;;;;5.00;5.00;;;;;11.44;100.00;101419.25;5041772;28;45356;-78
2023/12/28 02:10:54;;;;;;;;;4.33;3.00;;;;;11.55;100.00;101435.53;5023289;28;59975;-78
2023/12/28 02:13:20;;;;;;;;;3.67;3.67;;;;;11.52;100.00;101444.47;5037150;28;46106;-78
2023/12/28 02:15:49;;;;;;;;;4.33;4.00;;;;;11.53;100.00;101450.66;5038647;28;45305;-78
2023/12/28 02:18:23;;;;;;;;;5.00;4.00;;;;;11.52;100.00;101450.72;5038458;28;45542;-78
2023/12/28 02:20:50;;;;;;;;;8.67;4.00;;;;;11.31;100.00;101415.38;5038684;28;45397;-79
2023/12/28 02:23:15;;;;;;;;;5.00;3.67;;;;;11.40;100.00;101441.47;5020262;28;45562;-78
2023/12/28 02:25:41;;;;;;;;;6.00;4.67;;;;;11.30;100.00;101419.78;5038773;28;45472;-78
2023/12/28 02:28:06;;;;;;;;;7.33;5.00;;;;;11.44;100.00;101451.91;5017246;28;45389;-79
2023/12/28 02:30:32;;;;;;;;;7.00;3.00;;;;;11.32;100.00;101443.59;5032293;28;45402;-78
2023/12/28 02:33:26;;;;;;;;;4.67;3.00;;;;;11.46;100.00;101454.47;5037223;28;45470;-78
2023/12/28 02:35:54;;;;;;;;;5.00;5.00;;;;;11.45;100.00;101460.72;5033161;28;45429;-78
2023/12/28 02:38:23;;;;;;;;;5.67;5.00;;;;;11.36;100.00;101447.81;5038271;28;45377;-78
2023/12/28 02:40:49;;;;;;;;;5.67;3.67;;;;;11.42;100.00;101453.72;5026703;28;45598;-78
2023/12/28 02:43:15;;;;;;;;;4.00;4.00;;;;;11.27;100.00;101434.94;5037870;28;45409;-79
2023/12/28 02:45:40;;;;;;;;;4.67;4.33;;;;;10.76;100.00;101337.31;5037573;28;45488;-78
2023/12/28 02:48:06;;;;;;;;;2.67;2.33;;;;;11.38;100.00;101446.84;5019894;28;45352;-78
2023/12/28 02:50:32;;;;;;;;;3.33;3.33;;;;;11.36;100.00;101451.31;5017259;28;45547;-78
2023/12/28 02:52:57;;;;;;;;;5.00;5.00;;;;;11.41;100.00;101454.66;5036752;28;46801;-79
2023/12/28 02:55:23;;;;;;;;;3.00;3.00;;;;;11.39;100.00;101453.84;5044884;28;45282;-78
2023/12/28 02:57:50;;;;;;;;;7.00;4.00;;;;;11.40;100.00;101447.63;5023123;28;45562;-79
2023/12/28 03:00:16;;;;;;;;;3.00;3.00;;;;;11.17;100.00;101389.44;5019763;28;45421;-79
2023/12/28 03:02:41;;;;;;;;;5.00;3.67;;;;;11.22;100.00;101416.56;5035069;28;47820;-79
2023/12/28 03:05:07;;;;;;;;;4.00;3.00;;;;;11.37;100.00;101433.66;5038291;28;45327;-79
2023/12/28 03:07:33;;;;;;;;;5.00;3.00;;;;;11.41;100.00;101438.78;5038552;28;45671;-79
2023/12/28 03:09:58;;;;;;;;;8.67;3.67;;;;;11.11;100.00;101402.06;5048684;28;45302;-78
2023/12/28 03:12:24;;;;;;;;;3.67;3.67;;;;;11.43;100.00;101438.69;5019819;28;47271;-79
2023/12/28 03:14:50;;;;;;;;;3.00;3.00;;;;;11.37;100.00;101431.00;5019752;28;45540;-78
2023/12/28 03:17:15;;;;;;;;;2.33;2.33;;;;;11.26;100.00;101410.25;5036649;28;45479;-79
2023/12/28 03:19:40;;;;;;;;;3.33;3.00;;;;;11.31;100.00;101429.47;5036925;28;45519;-78
2023/12/28 03:22:06;;;;;;;;;2.67;2.67;;;;;11.42;100.00;101447.56;5037243;28;54121;-78
2023/12/28 03:24:31;;;;;;;;;4.33;4.00;;;;;11.44;100.00;101451.03;5019886;28;50232;-78
2023/12/28 03:26:57;;;;;;;;;4.33;2.67;;;;;11.13;100.00;101405.50;5020203;28;46033;-78
2023/12/28 03:29:24;;;;;;;;;3.00;3.00;;;;;11.35;100.00;101438.16;5016256;28;45563;-79
2023/12/28 03:31:49;;;;;;;;;2.33;2.33;;;;;11.39;100.00;101439.72;5037181;28;45294;-79
2023/12/28 03:34:15;;;;;;;;;2.00;2.00;;;;;11.40;100.00;101441.47;5016609;28;45284;-79
2023/12/28 03:36:40;;;;;;;;;4.00;3.00;;;;;11.36;100.00;101438.09;5013255;28;45298;-78
2023/12/28 03:39:05;;;;;;;;;3.00;2.33;;;;;11.40;100.00;101438.81;5037989;28;50539;-78
2023/12/28 03:41:31;;;;;;;;;2.67;2.67;;;;;11.42;100.00;101442.25;5019818;28;48042;-79
2023/12/28 03:43:57;;;;;;;;;4.00;3.00;;;;;11.39;100.00;101435.31;5038458;28;45368;-79
2023/12/28 03:46:22;;;;;;;;;3.33;2.67;;;;;11.12;100.00;101393.19;5053046;28;45536;-79
2023/12/28 03:48:48;;;;;;;;;5.33;4.00;;;;;11.35;100.00;101439.00;5040677;28;45480;-79
2023/12/28 03:51:15;;;;;;;;;4.00;3.00;;;;;11.19;100.00;101410.56;5036835;28;45451;-79
2023/12/28 03:53:41;;;;;;;;;4.67;4.00;;;;;11.25;100.00;101428.84;5035542;28;45385;-79
2023/12/28 03:56:07;;;;;;;;;3.67;3.33;;;;;11.14;100.00;101410.75;5037128;28;45424;-79
2023/12/28 03:58:32;;;;;;;;;2.33;2.00;;;;;11.16;100.00;101406.25;5040644;28;45293;-79
2023/12/28 04:00:57;;;;;;;;;3.33;3.33;;;;;11.20;100.00;101412.28;5040608;28;46108;-78
2023/12/28 04:03:23;;;;;;;;;8.67;3.33;;;;;11.24;100.00;101422.69;5022436;28;45436;-78
2023/12/28 04:05:48;;;;;;;;;4.00;1.67;;;;;11.20;100.00;101423.72;5040935;28;45449;-78
2023/12/28 04:08:13;;;;;;;;;3.67;3.00;;;;;11.10;100.00;101414.44;5040665;28;45579;-79
2023/12/28 04:10:39;;;;;;;;;2.00;2.00;;;;;11.09;100.00;101423.31;5022624;28;46762;-78
2023/12/28 04:13:05;;;;;;;;;4.00;3.00;;;;;11.09;100.00;101423.31;5040836;28;46123;-79
2023/12/28 04:15:30;;;;;;;;;4.00;3.00;;;;;11.01;100.00;101417.44;5048845;28;45333;-79
2023/12/28 04:17:56;;;;;;;;;4.00;4.00;;;;;11.15;100.00;101432.78;5040278;28;45344;-79
2023/12/28 04:20:21;;;;;;;;;6.00;3.67;;;;;10.96;100.00;101425.53;5040420;28;45393;-79
2023/12/28 04:22:47;;;;;;;;;3.00;2.00;;;;;10.83;100.00;101394.34;5040388;28;45349;-79
2023/12/28 04:25:12;;;;;;;;;4.00;3.00;;;;;10.96;100.00;101403.53;5022754;28;45454;-79
2023/12/28 04:27:38;;;;;;;;;6.33;3.33;;;;;11.07;100.00;101429.56;5038553;28;45431;-79
2023/12/28 04:30:05;;;;;;;;;3.00;3.00;;;;;11.03;100.00;101423.53;5040004;28;46232;-79
2023/12/28 04:32:33;;;;;;;;;3.33;3.00;;;;;11.00;100.00;101418.34;5039978;28;45502;-79
2023/12/28 04:34:58;;;;;;;;;2.00;2.00;;;;;11.11;100.00;101436.47;5040484;28;45353;-79
2023/12/28 04:37:26;;;;;;;;;3.00;2.33;;;;;11.09;100.00;101427.75;5040207;28;45278;-79
2023/12/28 04:39:52;;;;;;;;;3.00;3.00;;;;;11.07;100.00;101435.72;5039765;28;45330;-79
2023/12/28 04:42:18;;;;;;;;;2.67;2.00;;;;;11.02;100.00;101428.91;5022286;28;45768;-79
2023/12/28 04:44:43;;;;;;;;;4.67;2.67;;;;;10.99;100.00;101424.59;5040176;28;45341;-79
2023/12/28 04:47:09;;;;;;;;;3.00;1.00;;;;;11.06;100.00;101438.44;5039499;28;45472;-79
2023/12/28 04:49:34;;;;;;;;;4.00;4.00;;;;;10.84;100.00;101399.56;5021884;28;47898;-79
2023/12/28 04:52:00;;;;;;;;;2.00;2.00;;;;;11.04;100.00;101419.09;5046056;28;45401;-79
2023/12/28 04:54:25;;;;;;;;;4.00;4.00;;;;;11.03;100.00;101420.88;5027295;28;45424;-79
2023/12/28 04:56:51;;;;;;;;;4.00;2.00;;;;;10.91;100.00;101402.84;5040319;28;45404;-79
2023/12/28 04:59:16;;;;;;;;;5.33;2.00;;;;;10.95;100.00;101415.91;5023074;28;52808;-79
2023/12/28 05:01:42;;;;;;;;;3.67;3.00;;;;;11.01;100.00;101419.22;5039583;28;45431;-78
2023/12/28 05:04:08;;;;;;;;;2.67;2.67;;;;;10.86;100.00;101407.47;5038486;28;45369;-78
2023/12/28 05:06:33;;;;;;;;;2.33;2.33;;;;;10.86;100.00;101407.47;5018372;28;45447;-78
2023/12/28 05:08:58;;;;;;;;;2.67;2.67;;;;;11.01;100.00;101438.63;5036380;28;46199;-78
2023/12/28 05:11:24;;;;;;;;;3.00;3.00;;;;;10.79;100.00;101398.91;5022453;28;57095;-79
2023/12/28 05:13:49;;;;;;;;;3.00;2.00;;;;;10.95;100.00;101429.13;5039451;28;45325;-78
2023/12/28 05:16:14;;;;;;;;;1.33;1.00;;;;;10.99;100.00;101440.47;5021541;28;45481;-78
2023/12/28 05:18:40;;;;;;;;;3.67;3.00;;;;;10.97;100.00;101435.22;5037853;28;48013;-78
2023/12/28 05:21:05;;;;;;;;;3.33;2.00;;;;;10.82;100.00;101425.25;5048034;28;49342;-78
2023/12/28 05:23:30;;;;;;;;;2.00;2.00;;;;;10.73;100.00;101403.56;5044732;28;45376;-78
2023/12/28 05:25:56;;;;;;;;;3.00;2.00;;;;;10.79;100.00;101421.84;5021591;28;45346;-78
2023/12/28 05:28:21;;;;;;;;;3.33;3.00;;;;;10.83;100.00;101429.59;5038452;28;64137;-78
2023/12/28 05:30:46;;;;;;;;;7.67;4.00;;;;;10.88;100.00;101440.88;5039126;28;49808;-76
2023/12/28 05:33:12;;;;;;;;;3.00;3.00;;;;;10.88;100.00;101443.53;5040128;28;45317;-77
2023/12/28 05:35:37;;;;;;;;;6.00;4.00;;;;;10.71;100.00;101422.13;5039161;28;45547;-78
2023/12/28 05:38:02;;;;;;;;;4.67;2.67;;;;;10.79;100.00;101430.66;5039555;28;45592;-78
2023/12/28 05:40:28;;;;;;;;;3.00;3.00;;;;;10.70;100.00;101423.03;5021356;28;45291;-78
2023/12/28 05:42:53;;;;;;;;;3.00;3.00;;;;;10.64;100.00;101403.88;5018984;28;52851;-78
2023/12/28 05:45:18;;;;;;;;;2.33;2.33;;;;;10.83;100.00;101447.28;5034779;28;45879;-77
2023/12/28 05:47:44;;;;;;;;;3.33;2.33;;;;;10.50;100.00;101398.28;5038920;28;45558;-78
2023/12/28 05:50:09;;;;;;;;;2.67;2.67;;;;;10.71;100.00;101438.00;5035637;28;45464;-78
2023/12/28 05:52:35;;;;;;;;;3.33;2.00;;;;;10.62;100.00;101418.97;5039324;28;45411;-78
2023/12/28 05:55:00;;;;;;;;;2.33;1.67;;;;;10.66;100.00;101436.47;5039119;28;45369;-78
2023/12/28 05:57:29;;;;;;;;;2.67;2.00;;;;;10.62;100.00;101435.69;5039639;28;46058;-78
2023/12/28 05:59:55;;;;;;;;;4.33;2.33;;;;;10.69;100.00;101447.78;5038983;28;45772;-78
2023/12/28 06:02:20;;;;;;;;;4.00;3.00;;;;;10.67;100.00;101441.66;5038983;28;45659;-78
2023/12/28 06:04:45;;;;;;;;;4.00;1.00;;;;;10.59;100.00;101441.09;5039378;28;45392;-78
2023/12/28 06:07:11;;;;;;;;;5.33;4.00;;;;;10.70;100.00;101461.88;5038989;28;45350;-78
2023/12/28 06:09:38;;;;;;;;;4.67;3.00;;;;;10.70;100.00;101461.88;5038465;28;45293;-78
2023/12/28 06:12:04;;;;;;;;;2.33;2.00;;;;;10.47;100.00;101430.97;5038866;28;45367;-78
2023/12/28 06:14:30;;;;;;;;;3.33;3.33;;;;;10.66;100.00;101465.56;5038710;28;45400;-78
2023/12/28 06:16:55;;;;;;;;;4.00;2.00;;;;;10.67;100.00;101461.97;5040630;28;45350;-78
2023/12/28 06:19:21;;;;;;;;;5.00;2.00;;;;;10.66;100.00;101474.34;5039298;28;45467;-78
2023/12/28 06:21:47;;;;;;;;;4.00;2.00;;;;;10.36;100.00;101410.22;5039495;28;45647;-78
2023/12/28 06:24:13;;;;;;;;;3.33;2.00;;;;;10.46;100.00;101437.19;5039988;28;45653;-78
2023/12/28 06:26:42;;;;;;;;;3.00;2.00;;;;;10.51;100.00;101435.22;5039199;28;45303;-78
2023/12/28 06:29:09;;;;;;;;;2.67;2.67;;;;;10.62;100.00;101448.06;5040038;28;45380;-78
2023/12/28 06:31:36;;;;;;;;;3.00;1.67;;;;;10.61;100.00;101449.84;5020007;28;45392;-78
2023/12/28 06:34:03;;;;;;;;;2.00;2.00;;;;;10.57;100.00;101453.50;5040825;28;45380;-78
2023/12/28 06:36:28;;;;;;;;;2.00;2.00;;;;;10.53;100.00;101449.28;5040721;28;46272;-78
2023/12/28 06:38:53;;;;;;;;;1.67;1.67;;;;;10.59;100.00;101459.63;5021168;28;45880;-78
2023/12/28 06:41:19;;;;;;;;;3.00;2.00;;;;;10.61;100.00;101462.19;5039114;28;45314;-79
2023/12/28 06:43:44;;;;;;;;;4.00;2.00;;;;;10.47;100.00;101449.47;5038234;28;48171;-78
2023/12/28 06:46:09;;;;;;;;;2.33;1.00;;;;;10.59;100.00;101466.69;5038474;28;45420;-78
2023/12/28 06:48:35;;;;;;;;;2.00;2.00;;;;;10.53;100.00;101459.00;5026817;28;45443;-78
2023/12/28 06:51:00;;;;;;;;;3.00;2.00;;;;;10.49;100.00;101446.78;5038506;28;45282;-78
2023/12/28 06:53:25;;;;;;;;;4.67;2.00;;;;;10.49;100.00;101452.06;5037650;28;45552;-78
2023/12/28 06:55:51;;;;;;;;;6.67;2.67;;;;;10.51;100.00;101459.03;5038984;28;45241;-79
2023/12/28 06:58:16;;;;;;;;;2.00;2.00;;;;;10.56;100.00;101462.38;5038665;28;45415;-79
2023/12/28 07:00:43;;;;;;;;;2.33;2.33;;;;;10.49;100.00;101445.00;5038480;28;45376;-78
2023/12/28 07:03:09;;;;;;;;;6.33;4.00;;;;;10.59;100.00;101470.22;5037450;28;45363;-79
2023/12/28 07:05:34;;;;;;;;;4.67;3.00;;;;;10.45;100.00;101452.19;5038803;28;46507;-78
2023/12/28 07:07:59;;;;;;;;;3.00;1.33;;;;;10.60;100.00;101481.66;5037007;28;45750;-79
2023/12/28 07:10:25;;;;;;;;;2.00;2.00;;;;;10.61;100.00;101486.88;5038431;28;45376;-78
2023/12/28 07:12:50;;;;;;;;;2.33;2.00;;;;;10.45;100.00;101470.69;5038189;28;45333;-78
2023/12/28 07:15:15;;;;;;;;;3.67;3.00;;;;;10.42;100.00;101465.53;5021146;28;55807;-79
2023/12/28 07:17:41;;;;;;;;;4.00;3.00;;;;;10.47;100.00;101475.09;5038718;28;45318;-79
2023/12/28 07:20:10;;;;;;;;;3.67;2.00;;;;;10.49;100.00;101476.75;5040861;28;45383;-79
2023/12/28 07:22:35;;;;;;;;;5.00;4.33;;;;;10.47;100.00;101477.72;5021057;28;45282;-78
2023/12/28 07:25:01;;;;;;;;;3.00;3.00;;;;;10.53;100.00;101486.31;5044535;28;45766;-79
2023/12/28 07:27:26;;;;;;;;;4.00;1.67;;;;;10.40;100.00;101464.69;5041885;28;45226;-78
2023/12/28 07:29:51;;;;;;;;;5.00;4.00;;;;;10.54;100.00;101493.28;5024251;28;45439;-78
2023/12/28 07:32:17;;;;;;;;;4.00;4.00;;;;;10.53;100.00;101496.88;5040451;28;55355;-78
2023/12/28 07:34:42;;;;;;;;;5.00;3.00;;;;;10.37;100.00;101474.56;5041013;28;46471;-78
2023/12/28 07:37:07;;;;;;;;;2.33;2.00;;;;;10.47;100.00;101497.06;5023006;28;45526;-78
2023/12/28 07:39:33;;;;;;;;;4.67;3.00;;;;;10.36;100.00;101467.53;5041735;28;45534;-78
2023/12/28 07:41:58;;;;;;;;;2.33;2.33;;;;;10.49;100.00;101495.25;5041282;28;45459;-78
2023/12/28 07:44:23;;;;;;;;;7.33;4.33;;;;;10.48;100.00;101496.16;5039074;28;48318;-78
2023/12/28 07:46:49;;;;;;;;;5.00;3.67;;;;;10.54;100.00;101510.94;5041463;28;48536;-78
2023/12/28 07:49:14;;;;;;;;;3.00;3.00;;;;;10.48;100.00;101497.94;5041904;28;45461;-78
2023/12/28 07:51:39;;;;;;;;;3.67;2.33;;;;;10.49;100.00;101502.31;5040058;28;45501;-78
2023/12/28 07:54:05;;;;;;;;;3.00;3.00;;;;;10.31;100.00;101475.59;5040862;28;46335;-78
2023/12/28 07:56:30;;;;;;;;;5.33;2.00;;;;;10.47;100.00;101497.06;5039697;28;45465;-78
2023/12/28 07:58:55;;;;;;;;;4.67;3.00;;;;;10.45;100.00;101497.16;5022891;28;45455;-78
2023/12/28 08:01:22;;;;;;;;;4.00;3.00;;;;;10.45;100.00;101507.72;5040232;28;55929;-78
2023/12/28 08:03:47;;;;;;;;;6.00;3.00;;;;;10.55;100.00;101517.97;5043235;28;45538;-78
2023/12/28 08:06:13;;;;;;;;;3.00;3.00;;;;;10.46;100.00;101516.53;5042023;28;45332;-78
2023/12/28 08:08:38;;;;;;;;;8.67;4.00;;;;;10.30;100.00;101484.47;5042109;28;45455;-79
2023/12/28 08:11:04;;;;;;;;;4.33;4.00;;;;;10.44;100.00;101502.47;5037628;28;45715;-78
2023/12/28 08:13:29;;;;;;;;;5.67;4.00;;;;;10.59;100.00;101519.59;5040039;28;45360;-78
2023/12/28 08:15:54;;;;;;;;;9.00;4.00;;;;;10.59;100.00;101522.25;5022865;28;45902;-78
2023/12/28 08:18:20;;;;;;;;;9.00;5.33;;;;;10.62;100.00;101530.06;5041270;28;45211;-78
2023/12/28 08:20:45;;;;;;;;;4.33;3.00;;;;;10.45;100.00;101505.06;5040512;28;53291;-80
2023/12/28 08:23:11;;;;;;;;;4.33;3.33;;;;;10.28;100.00;101472.22;5023082;28;47312;-79
2023/12/28 08:25:36;;;;;;;;;4.33;3.00;;;;;10.47;100.00;101504.16;5026189;28;55398;-79
2023/12/28 08:28:02;;;;;;;;;7.33;4.00;;;;;10.67;100.00;101526.31;5028996;28;45422;-79
2023/12/28 08:30:27;;;;;;;;;4.00;2.00;;;;;10.69;100.00;101529.81;5046175;28;45353;-79
2023/12/28 08:32:53;;;;;;;;;6.33;4.00;;;;;10.72;100.00;101526.16;5042630;28;45445;-79
2023/12/28 08:35:18;;;;;;;;;3.00;3.00;;;;;10.37;100.00;101466.63;5047265;28;45424;-80
2023/12/28 08:37:44;;;;;;;;;4.67;4.67;;;;;10.74;100.00;101543.72;5041240;28;45526;-80
2023/12/28 08:40:09;;;;;;;;;4.00;3.00;;;;;10.08;100.00;101424.47;5041048;28;45835;-80
2023/12/28 08:42:34;;;;;;;;;1.00;1.00;;;;;10.54;100.00;101495.94;5042271;28;46514;-79
2023/12/28 08:45:00;;;;;;;;;2.00;2.00;;;;;10.75;100.00;101519.00;5030584;28;45479;-79
2023/12/28 08:47:25;;;;;;;;;3.00;3.00;;;;;10.59;100.00;101504.59;5044211;28;45396;-78
2023/12/28 08:49:50;;;;;;;;;2.00;2.00;;;;;10.74;100.00;101525.19;5038666;28;45624;-79
2023/12/28 08:52:16;;;;;;;;;2.33;2.33;;;;;10.79;100.00;101528.56;5040093;28;46018;-80
2023/12/28 08:54:41;;;;;;;;;3.00;3.00;;;;;10.65;100.00;101511.44;5035654;28;45542;-80
2023/12/28 08:57:07;;;;;;;;;3.33;3.00;;;;;10.64;100.00;101509.69;5036503;28;45501;-80
2023/12/28 08:59:36;;;;;;;;;3.67;3.00;;;;;10.76;100.00;101533.97;5040633;28;45358;-80
2023/12/28 09:02:01;;;;;;;;;3.33;1.67;;;;;10.89;100.00;101569.63;5021514;28;47451;-80
2023/12/28 09:04:26;;;;;;;;;10.67;3.67;;;;;10.83;100.00;101537.25;5042091;28;45277;-80
2023/12/28 09:06:52;;;;;;;;;4.00;4.00;;;;;10.80;100.00;101529.38;5041170;28;45284;-80
2023/12/28 09:09:18;;;;;;;;;3.00;3.00;;;;;10.82;100.00;101523.16;5038300;28;45953;-80
2023/12/28 09:11:43;;;;;;;;;3.33;3.33;;;;;11.01;100.00;101559.50;5022838;28;47591;-80
2023/12/28 09:14:09;;;;;;;;;4.67;4.00;;;;;10.89;100.00;101534.38;5041692;28;45292;-80
2023/12/28 09:16:35;;;;;;;;;1.67;1.33;;;;;10.86;100.00;101531.84;5039192;28;47858;-81
2023/12/28 09:19:00;;;;;;;;;2.67;2.67;;;;;10.96;100.00;101542.00;5039759;28;45416;-80
2023/12/28 09:21:26;;;;;;;;;2.00;2.00;;;;;11.02;100.00;101543.59;5040109;28;46350;-80
2023/12/28 09:23:51;;;;;;;;;5.00;3.00;;;;;11.11;100.00;101561.75;5038343;28;45550;-81
2023/12/28 09:26:17;;;;;;;;;2.00;1.67;;;;;11.18;100.00;101554.47;5018882;28;45380;-80
2023/12/28 09:28:43;;;;;;;;;4.00;4.00;;;;;11.06;100.00;101544.34;5040574;28;45646;-81
2023/12/28 09:31:09;;;;;;;;;2.67;2.00;;;;;11.13;100.00;101551.97;5040890;28;45550;-81
2023/12/28 09:33:35;;;;;;;;;2.67;1.00;;;;;11.32;100.00;101576.81;5039340;28;45222;-80
2023/12/28 09:36:03;;;;;;;;;2.00;2.00;;;;;11.35;100.00;101571.41;5012588;28;45585;-80
2023/12/28 09:38:29;;;;;;;;;3.67;3.67;;;;;11.42;100.00;101574.69;5018912;28;45349;-80
2023/12/28 09:40:58;;;;;;;;;5.33;3.33;;;;;11.31;100.00;101543.34;5038866;28;45466;-81
2023/12/28 09:43:37;;;;;;;;;3.00;2.00;;;;;11.23;100.00;101524.22;5031179;28;45420;-80
2023/12/28 09:46:07;;;;;;;;;3.67;3.00;;;;;11.52;100.00;101574.28;5039390;28;45304;-81
2023/12/28 09:48:33;;;;;;;;;5.33;3.00;;;;;11.51;100.00;101584.97;5039234;28;45368;-80
2023/12/28 09:50:58;;;;;;;;;3.00;3.00;;;;;11.57;100.00;101591.78;5037710;28;46470;-81
2023/12/28 09:53:24;;;;;;;;;3.00;2.00;;;;;11.44;100.00;101560.50;5039097;28;45744;-81
2023/12/28 09:55:51;;;;;;;;;4.00;4.00;;;;;11.61;100.00;101583.69;5027580;28;45445;-81
2023/12/28 09:58:19;;;;;;;;;5.33;4.33;;;;;11.54;100.00;101555.69;5025493;28;45397;-81
2023/12/28 10:00:45;;;;;;;;;4.00;4.00;;;;;11.71;100.00;101582.44;5041414;28;47755;-81
2023/12/28 10:03:15;;;;;;;;;6.00;3.00;;;;;11.61;100.00;101554.53;5021702;28;45409;-83
2023/12/28 10:05:42;;;;;;;;;3.00;1.33;;;;;11.50;100.00;101554.09;5035289;28;45524;-83
2023/12/28 10:08:08;;;;;;;;;4.00;2.00;;;;;11.55;100.00;101554.75;5012211;28;45318;-83
2023/12/28 10:10:33;;;;;;;;;2.00;2.00;;;;;11.45;100.00;101533.06;5041740;28;46200;-83
2023/12/28 10:13:00;;;;;;;;;7.33;3.00;;;;;11.49;100.00;101529.38;5021243;28;45426;-83
2023/12/28 10:15:25;;;;;;;;;2.33;2.00;;;;;11.45;100.00;101519.81;5039210;28;45454;-84
2023/12/28 10:17:53;;;;;;;;;3.33;2.00;;;;;11.23;100.00;101483.63;5041805;28;45472;-83
2023/12/28 10:20:18;;;;;;;;;2.00;2.00;;;;;11.68;100.00;101539.25;5012179;28;45398;-84
2023/12/28 10:22:44;;;;;;;;;4.00;3.00;;;;;11.78;100.00;101551.25;5035895;28;45540;-80
2023/12/28 10:25:12;;;;;;;;;2.00;2.00;;;;;11.76;100.00;101543.34;5035365;28;45374;-81
2023/12/28 10:27:43;;;;;;;;;3.00;2.00;;;;;11.78;100.00;101540.66;5039177;28;45522;-81
2023/12/28 10:30:12;;;;;;;;;2.33;2.33;;;;;11.89;100.00;101556.97;5038334;28;45448;-81
2023/12/28 10:32:41;;;;;;;;;4.67;2.33;;;;;11.89;100.00;101543.72;5038221;28;45341;-80
2023/12/28 10:35:06;;;;;;;;;2.67;2.67;;;;;11.91;100.00;101537.41;5041338;28;45309;-82
2023/12/28 10:37:35;;;;;;;;;3.33;2.33;;;;;12.01;100.00;101559.97;5039674;28;45726;-81
2023/12/28 10:40:06;;;;;;;;;4.00;2.00;;;;;12.05;100.00;101544.81;5039954;28;45636;-81
2023/12/28 10:42:33;;;;;;;;;4.00;3.00;;;;;12.19;100.00;101562.81;5039735;28;45377;-81
2023/12/28 10:45:05;;;;;;;;;2.00;2.00;;;;;12.20;100.00;101553.94;5021165;28;45378;-80
2023/12/28 10:47:37;;;;;;;;;2.00;2.00;;;;;12.25;100.00;101551.94;5038753;28;45662;-81
2023/12/28 10:50:05;;;;;;;;;5.00;2.00;;;;;12.35;100.00;101555.91;5040183;28;45699;-81
2023/12/28 10:52:32;;;;;;;;;5.00;2.00;;;;;12.30;100.00;101548.16;5041167;28;45567;-81
2023/12/28 10:55:18;;;;;;;;;5.00;3.00;;;;;12.22;100.00;101522.88;5028168;28;45428;-80
2023/12/28 10:57:58;;;;;;;;;6.67;2.33;;;;;12.50;100.00;101539.34;5026253;28;45793;-82
2023/12/28 11:00:31;;;;;;;;;3.00;2.00;;;;;12.45;100.00;101534.25;5050500;28;45724;-80
2023/12/28 11:03:03;;;;;;;;;2.00;0.00;;;;;12.42;100.00;101518.47;5023281;28;45829;-82
2023/12/28 11:05:30;;;;;;;;;4.33;2.33;;;;;12.60;100.00;101535.34;5047082;28;45460;-82
2023/12/28 11:07:58;;;;;;;;;5.00;3.67;;;;;12.64;100.00;101529.00;5043345;28;45614;-79
2023/12/28 11:10:24;;;;;;;;;4.67;3.00;;;;;12.51;100.00;101485.34;5046393;28;46138;-83
2023/12/28 11:12:53;;;;;;;;;3.67;2.00;;;;;12.52;100.00;101493.25;5043197;28;45499;-81